sensor_id;sensor_type;location;lat;lon;timestamp;pressure;altitude;pressure_sealevel;temperature;humidity
21240;BME280;10778;48.962;9.018;2023-01-28T00:01:06;99754.66;;;-0.27;90.42
21240;BME280;10778;48.962;9.018;2023-01-28T00:03:32;99758.91;;;-0.24;90.84
21240;BME280;10778;48.962;9.018;2023-01-28T00:06:03;99750.38;;;-0.28;91.10
21240;BME280;10778;48.962;9.018;2023-01-28T00:08:30;99754.69;;;-0.29;90.00
21240;BME280;10778;48.962;9.018;2023-01-28T00:11:01;99752.88;;;-0.25;90.07
21240;BME280;10778;48.962;9.018;2023-01-28T00:13:28;99752.19;;;-0.30;90.42
21240;BME280;10778;48.962;9.018;2023-01-28T00:16:02;99751.44;;;-0.34;90.20
21240;BME280;10778;48.962;9.018;2023-01-28T00:18:30;99751.41;;;-0.32;90.44
21240;BME280;10778;48.962;9.018;2023-01-28T00:21:00;99753.97;;;-0.32;90.75
21240;BME280;10778;48.962;9.018;2023-01-28T00:23:27;99754.78;;;-0.30;90.63
21240;BME280;10778;48.962;9.018;2023-01-28T00:25:57;99756.56;;;-0.32;90.21
21240;BME280;10778;48.962;9.018;2023-01-28T00:28:23;99754.81;;;-0.32;90.51
21240;BME280;10778;48.962;9.018;2023-01-28T00:30:49;99750.44;;;-0.30;90.81
21240;BME280;10778;48.962;9.018;2023-01-28T00:33:16;99741.88;;;-0.32;90.65
21240;BME280;10778;48.962;9.018;2023-01-28T00:35:42;99743.56;;;-0.31;91.10
21240;BME280;10778;48.962;9.018;2023-01-28T00:38:09;99746.31;;;-0.35;90.67
21240;BME280;10778;48.962;9.018;2023-01-28T00:40:35;99745.38;;;-0.33;90.04
21240;BME280;10778;48.962;9.018;2023-01-28T00:43:02;99751.31;;;-0.31;90.00
21240;BME280;10778;48.962;9.018;2023-01-28T00:45:28;99739.25;;;-0.30;90.63
21240;BME280;10778;48.962;9.018;2023-01-28T00:47:54;99734.81;;;-0.26;90.29
21240;BME280;10778;48.962;9.018;2023-01-28T00:50:20;99738.22;;;-0.24;90.62
21240;BME280;10778;48.962;9.018;2023-01-28T00:52:47;99736.59;;;-0.29;90.35
21240;BME280;10778;48.962;9.018;2023-01-28T00:55:13;99741.59;;;-0.22;89.96
21240;BME280;10778;48.962;9.018;2023-01-28T00:57:40;99739.16;;;-0.27;90.59
21240;BME280;10778;48.962;9.018;2023-01-28T01:00:07;99739.31;;;-0.32;90.07
21240;BME280;10778;48.962;9.018;2023-01-28T01:02:33;99739.38;;;-0.33;90.49
21240;BME280;10778;48.962;9.018;2023-01-28T01:04:59;99743.66;;;-0.32;90.65
21240;BME280;10778;48.962;9.018;2023-01-28T01:07:28;99736.81;;;-0.35;90.81
21240;BME280;10778;48.962;9.018;2023-01-28T01:10:03;99738.66;;;-0.38;90.45
21240;BME280;10778;48.962;9.018;2023-01-28T01:12:29;99742.16;;;-0.39;91.00
21240;BME280;10778;48.962;9.018;2023-01-28T01:14:55;99740.41;;;-0.39;90.62
21240;BME280;10778;48.962;9.018;2023-01-28T01:17:22;99743.00;;;-0.39;91.50
21240;BME280;10778;48.962;9.018;2023-01-28T01:19:48;99740.16;;;-0.31;91.58
21240;BME280;10778;48.962;9.018;2023-01-28T01:22:14;99747.22;;;-0.36;91.72
21240;BME280;10778;48.962;9.018;2023-01-28T01:24:40;99742.09;;;-0.38;91.61
21240;BME280;10778;48.962;9.018;2023-01-28T01:27:06;99749.13;;;-0.41;91.90
21240;BME280;10778;48.962;9.018;2023-01-28T01:29:32;99745.63;;;-0.40;91.83
21240;BME280;10778;48.962;9.018;2023-01-28T01:31:59;99751.47;;;-0.35;91.92
21240;BME280;10778;48.962;9.018;2023-01-28T01:34:25;99748.91;;;-0.35;91.92
21240;BME280;10778;48.962;9.018;2023-01-28T01:36:51;99755.97;;;-0.40;92.11
21240;BME280;10778;48.962;9.018;2023-01-28T01:39:17;99754.31;;;-0.43;91.99
21240;BME280;10778;48.962;9.018;2023-01-28T01:41:43;99751.56;;;-0.37;92.79
21240;BME280;10778;48.962;9.018;2023-01-28T01:47:14;99755.97;;;-0.40;92.42
21240;BME280;10778;48.962;9.018;2023-01-28T01:49:41;99758.56;;;-0.40;92.85
21240;BME280;10778;48.962;9.018;2023-01-28T01:52:15;99758.44;;;-0.37;93.04
21240;BME280;10778;48.962;9.018;2023-01-28T01:54:46;99756.72;;;-0.37;93.57
21240;BME280;10778;48.962;9.018;2023-01-28T01:57:17;99757.66;;;-0.39;93.57
21240;BME280;10778;48.962;9.018;2023-01-28T01:59:47;99748.97;;;-0.37;93.70
21240;BME280;10778;48.962;9.018;2023-01-28T02:02:13;99755.03;;;-0.38;93.48
21240;BME280;10778;48.962;9.018;2023-01-28T02:04:41;99744.59;;;-0.35;93.51
21240;BME280;10778;48.962;9.018;2023-01-28T02:07:12;99751.66;;;-0.40;93.26
21240;BME280;10778;48.962;9.018;2023-01-28T02:09:39;99750.69;;;-0.37;93.33
21240;BME280;10778;48.962;9.018;2023-01-28T02:12:16;99748.06;;;-0.36;93.36
21240;BME280;10778;48.962;9.018;2023-01-28T02:14:54;99749.06;;;-0.40;93.68
21240;BME280;10778;48.962;9.018;2023-01-28T02:17:23;99754.19;;;-0.38;93.86
21240;BME280;10778;48.962;9.018;2023-01-28T02:19:58;99750.81;;;-0.40;94.15
21240;BME280;10778;48.962;9.018;2023-01-28T02:25:41;99761.00;;;-0.36;94.65
21240;BME280;10778;48.962;9.018;2023-01-28T02:31:02;99757.56;;;-0.36;94.48
21240;BME280;10778;48.962;9.018;2023-01-28T02:33:42;99758.38;;;-0.34;94.87
21240;BME280;10778;48.962;9.018;2023-01-28T02:36:20;99757.50;;;-0.35;94.60
21240;BME280;10778;48.962;9.018;2023-01-28T02:38:49;99758.41;;;-0.36;94.41
21240;BME280;10778;48.962;9.018;2023-01-28T02:41:28;99757.50;;;-0.35;94.45
21240;BME280;10778;48.962;9.018;2023-01-28T02:43:56;99758.06;;;-0.26;95.11
21240;BME280;10778;48.962;9.018;2023-01-28T02:49:35;99757.41;;;-0.32;94.71
21240;BME280;10778;48.962;9.018;2023-01-28T02:54:58;99767.63;;;-0.29;95.09
21240;BME280;10778;48.962;9.018;2023-01-28T02:57:36;99763.53;;;-0.34;95.58
21240;BME280;10778;48.962;9.018;2023-01-28T03:00:55;99767.00;;;-0.35;95.67
21240;BME280;10778;48.962;9.018;2023-01-28T03:03:14;99768.63;;;-0.33;95.59
21240;BME280;10778;48.962;9.018;2023-01-28T03:05:55;99769.44;;;-0.31;95.62
21240;BME280;10778;48.962;9.018;2023-01-28T03:08:49;99766.84;;;-0.31;96.01
21240;BME280;10778;48.962;9.018;2023-01-28T03:11:47;99772.97;;;-0.33;96.23
21240;BME280;10778;48.962;9.018;2023-01-28T03:14:34;99773.78;;;-0.31;96.04
21240;BME280;10778;48.962;9.018;2023-01-28T03:17:31;99778.84;;;-0.28;96.48
21240;BME280;10778;48.962;9.018;2023-01-28T03:20:19;99768.72;;;-0.34;95.49
21240;BME280;10778;48.962;9.018;2023-01-28T03:23:08;99774.56;;;-0.29;96.04
21240;BME280;10778;48.962;9.018;2023-01-28T03:25:56;99777.91;;;-0.25;95.98
21240;BME280;10778;48.962;9.018;2023-01-28T03:28:45;99778.75;;;-0.26;95.99
21240;BME280;10778;48.962;9.018;2023-01-28T03:31:32;99779.66;;;-0.27;96.40
21240;BME280;10778;48.962;9.018;2023-01-28T03:34:20;99777.00;;;-0.24;96.34
21240;BME280;10778;48.962;9.018;2023-01-28T03:37:07;99777.91;;;-0.25;96.10
21240;BME280;10778;48.962;9.018;2023-01-28T03:39:44;99779.66;;;-0.27;96.21
21240;BME280;10778;48.962;9.018;2023-01-28T03:42:13;99781.31;;;-0.25;96.07
21240;BME280;10778;48.962;9.018;2023-01-28T03:44:52;99778.03;;;-0.30;96.72
21240;BME280;10778;48.962;9.018;2023-01-28T03:47:24;99781.41;;;-0.28;97.10
21240;BME280;10778;48.962;9.018;2023-01-28T03:49:53;99784.78;;;-0.26;97.26
21240;BME280;10778;48.962;9.018;2023-01-28T03:52:29;99782.22;;;-0.26;97.31
21240;BME280;10778;48.962;9.018;2023-01-28T03:55:09;99777.00;;;-0.24;97.27
21240;BME280;10778;48.962;9.018;2023-01-28T03:57:39;99779.63;;;-0.26;96.90
21240;BME280;10778;48.962;9.018;2023-01-28T04:00:06;99786.47;;;-0.25;96.80
21240;BME280;10778;48.962;9.018;2023-01-28T04:02:39;99784.69;;;-0.23;96.94
21240;BME280;10778;48.962;9.018;2023-01-28T04:05:09;99794.03;;;-0.19;97.02
21240;BME280;10778;48.962;9.018;2023-01-28T04:07:41;99790.72;;;-0.22;97.52
21240;BME280;10778;48.962;9.018;2023-01-28T04:10:20;99786.38;;;-0.22;97.48
21240;BME280;10778;48.962;9.018;2023-01-28T04:12:55;99791.69;;;-0.26;97.43
21240;BME280;10778;48.962;9.018;2023-01-28T04:15:23;99798.66;;;-0.29;97.79
21240;BME280;10778;48.962;9.018;2023-01-28T04:17:49;99795.28;;;-0.31;97.95
21240;BME280;10778;48.962;9.018;2023-01-28T04:20:34;99797.72;;;-0.26;98.30
21240;BME280;10778;48.962;9.018;2023-01-28T04:23:01;99804.72;;;-0.30;98.18
21240;BME280;10778;48.962;9.018;2023-01-28T04:25:28;99801.22;;;-0.27;98.75
21240;BME280;10778;48.962;9.018;2023-01-28T04:27:54;99809.91;;;-0.30;98.75
21240;BME280;10778;48.962;9.018;2023-01-28T04:30:23;99812.56;;;-0.31;99.07
21240;BME280;10778;48.962;9.018;2023-01-28T04:33:15;99811.00;;;-0.37;100.00
21240;BME280;10778;48.962;9.018;2023-01-28T04:35:50;99813.72;;;-0.40;100.00
21240;BME280;10778;48.962;9.018;2023-01-28T04:38:39;99811.16;;;-0.41;100.00
21240;BME280;10778;48.962;9.018;2023-01-28T04:41:16;99815.50;;;-0.42;100.00
21240;BME280;10778;48.962;9.018;2023-01-28T04:43:43;99818.13;;;-0.44;100.00
21240;BME280;10778;48.962;9.018;2023-01-28T04:46:28;99818.16;;;-0.45;100.00
21240;BME280;10778;48.962;9.018;2023-01-28T04:49:20;99818.34;;;-0.50;100.00
21240;BME280;10778;48.962;9.018;2023-01-28T04:51:51;99813.72;;;-0.40;100.00
21240;BME280;10778;48.962;9.018;2023-01-28T04:54:23;99819.06;;;-0.46;100.00
21240;BME280;10778;48.962;9.018;2023-01-28T04:56:49;99815.53;;;-0.44;100.00
21240;BME280;10778;48.962;9.018;2023-01-28T04:59:15;99817.34;;;-0.46;100.00
21240;BME280;10778;48.962;9.018;2023-01-28T05:01:42;99812.91;;;-0.42;100.00
21240;BME280;10778;48.962;9.018;2023-01-28T05:04:08;99826.72;;;-0.43;100.00
21240;BME280;10778;48.962;9.018;2023-01-28T05:06:37;99824.13;;;-0.43;100.00
21240;BME280;10778;48.962;9.018;2023-01-28T05:09:08;99822.28;;;-0.39;100.00
21240;BME280;10778;48.962;9.018;2023-01-28T05:11:34;99826.56;;;-0.38;100.00
21240;BME280;10778;48.962;9.018;2023-01-28T05:14:03;99825.66;;;-0.37;100.00
21240;BME280;10778;48.962;9.018;2023-01-28T05:16:39;99824.88;;;-0.39;100.00
21240;BME280;10778;48.962;9.018;2023-01-28T05:19:06;99824.84;;;-0.38;100.00
21240;BME280;10778;48.962;9.018;2023-01-28T05:21:35;99833.50;;;-0.39;100.00
21240;BME280;10778;48.962;9.018;2023-01-28T05:24:05;99837.13;;;-0.45;100.00
21240;BME280;10778;48.962;9.018;2023-01-28T05:26:32;99834.38;;;-0.40;100.00
21240;BME280;10778;48.962;9.018;2023-01-28T05:28:59;99841.50;;;-0.47;100.00
21240;BME280;10778;48.962;9.018;2023-01-28T05:31:25;99843.31;;;-0.50;100.00
21240;BME280;10778;48.962;9.018;2023-01-28T05:33:51;99843.06;;;-0.43;100.00
21240;BME280;10778;48.962;9.018;2023-01-28T05:36:18;99843.31;;;-0.50;100.00
21240;BME280;10778;48.962;9.018;2023-01-28T05:38:45;99846.56;;;-0.44;100.00
21240;BME280;10778;48.962;9.018;2023-01-28T05:41:11;99842.28;;;-0.45;100.00
21240;BME280;10778;48.962;9.018;2023-01-28T05:43:38;99846.59;;;-0.45;100.00
21240;BME280;10778;48.962;9.018;2023-01-28T05:46:14;99854.03;;;-0.34;100.00
21240;BME280;10778;48.962;9.018;2023-01-28T05:48:58;99842.94;;;-0.38;100.00
21240;BME280;10778;48.962;9.018;2023-01-28T05:51:47;99840.38;;;-0.39;100.00
21240;BME280;10778;48.962;9.018;2023-01-28T05:54:16;99841.38;;;-0.44;100.00
21240;BME280;10778;48.962;9.018;2023-01-28T05:56:42;99841.38;;;-0.44;100.00
21240;BME280;10778;48.962;9.018;2023-01-28T05:59:09;99849.16;;;-0.44;100.00
21240;BME280;10778;48.962;9.018;2023-01-28T06:01:38;99851.78;;;-0.45;100.00
21240;BME280;10778;48.962;9.018;2023-01-28T06:04:04;99856.09;;;-0.46;100.00
21240;BME280;10778;48.962;9.018;2023-01-28T06:06:31;99860.31;;;-0.43;100.00
21240;BME280;10778;48.962;9.018;2023-01-28T06:08:57;99860.25;;;-0.40;100.00
21240;BME280;10778;48.962;9.018;2023-01-28T06:11:27;99858.56;;;-0.41;100.00
21240;BME280;10778;48.962;9.018;2023-01-28T06:13:56;99872.22;;;-0.37;100.00
21240;BME280;10778;48.962;9.018;2023-01-28T06:16:29;99879.13;;;-0.38;100.00
21240;BME280;10778;48.962;9.018;2023-01-28T06:19:22;99880.97;;;-0.41;100.00
21240;BME280;10778;48.962;9.018;2023-01-28T06:21:49;99882.72;;;-0.42;100.00
21240;BME280;10778;48.962;9.018;2023-01-28T06:24:16;99880.06;;;-0.40;100.00
21240;BME280;10778;48.962;9.018;2023-01-28T06:26:42;99890.47;;;-0.42;100.00
21240;BME280;10778;48.962;9.018;2023-01-28T06:29:08;99897.38;;;-0.43;100.00
21240;BME280;10778;48.962;9.018;2023-01-28T06:31:34;99886.94;;;-0.39;100.00
21240;BME280;10778;48.962;9.018;2023-01-28T06:34:00;99891.41;;;-0.45;100.00
21240;BME280;10778;48.962;9.018;2023-01-28T06:36:26;99896.50;;;-0.43;100.00
21240;BME280;10778;48.962;9.018;2023-01-28T06:38:52;99902.50;;;-0.41;100.00
21240;BME280;10778;48.962;9.018;2023-01-28T06:41:18;99897.34;;;-0.41;100.00
21240;BME280;10778;48.962;9.018;2023-01-28T06:43:44;99906.03;;;-0.44;100.00
21240;BME280;10778;48.962;9.018;2023-01-28T06:46:10;99907.56;;;-0.38;100.00
21240;BME280;10778;48.962;9.018;2023-01-28T06:48:36;99911.06;;;-0.39;100.00
21240;BME280;10778;48.962;9.018;2023-01-28T06:51:02;99913.69;;;-0.40;100.00
21240;BME280;10778;48.962;9.018;2023-01-28T06:53:28;99911.84;;;-0.37;100.00
21240;BME280;10778;48.962;9.018;2023-01-28T06:55:54;99913.56;;;-0.37;100.00
21240;BME280;10778;48.962;9.018;2023-01-28T06:58:20;99908.47;;;-0.39;100.00
21240;BME280;10778;48.962;9.018;2023-01-28T07:00:46;99911.84;;;-0.37;100.00
21240;BME280;10778;48.962;9.018;2023-01-28T07:03:12;99910.09;;;-0.36;100.00
21240;BME280;10778;48.962;9.018;2023-01-28T07:05:38;99917.78;;;-0.33;100.00
21240;BME280;10778;48.962;9.018;2023-01-28T07:08:05;99917.81;;;-0.35;100.00
21240;BME280;10778;48.962;9.018;2023-01-28T07:10:31;99919.59;;;-0.37;100.00
21240;BME280;10778;48.962;9.018;2023-01-28T07:12:57;99918.84;;;-0.40;100.00
21240;BME280;10778;48.962;9.018;2023-01-28T07:15:23;99928.19;;;-0.36;100.00
21240;BME280;10778;48.962;9.018;2023-01-28T07:17:49;99931.75;;;-0.39;100.00
21240;BME280;10778;48.962;9.018;2023-01-28T07:20:17;99931.66;;;-0.37;100.00
21240;BME280;10778;48.962;9.018;2023-01-28T07:22:43;99931.78;;;-0.40;100.00
21240;BME280;10778;48.962;9.018;2023-01-28T07:25:11;99925.78;;;-0.41;100.00
21240;BME280;10778;48.962;9.018;2023-01-28T07:27:37;99934.19;;;-0.34;100.00
21240;BME280;10778;48.962;9.018;2023-01-28T07:30:04;99933.19;;;-0.30;100.00
21240;BME280;10778;48.962;9.018;2023-01-28T07:32:30;99932.16;;;-0.24;100.00
21240;BME280;10778;48.962;9.018;2023-01-28T07:34:56;99936.59;;;-0.30;100.00
21240;BME280;10778;48.962;9.018;2023-01-28T07:37:23;99935.69;;;-0.27;100.00
21240;BME280;10778;48.962;9.018;2023-01-28T07:39:49;99937.50;;;-0.31;100.00
21240;BME280;10778;48.962;9.018;2023-01-28T07:42:15;99940.06;;;-0.29;100.00
21240;BME280;10778;48.962;9.018;2023-01-28T07:44:46;99936.38;;;-0.22;100.00
21240;BME280;10778;48.962;9.018;2023-01-28T07:47:12;99943.34;;;-0.24;100.00
21240;BME280;10778;48.962;9.018;2023-01-28T07:49:38;99946.47;;;-0.14;100.00
21240;BME280;10778;48.962;9.018;2023-01-28T07:52:07;99941.13;;;-0.08;100.00
21240;BME280;10778;48.962;9.018;2023-01-28T07:54:34;99944.63;;;-0.10;100.00
21240;BME280;10778;48.962;9.018;2023-01-28T07:56:59;99949.03;;;-0.12;100.00
21240;BME280;10778;48.962;9.018;2023-01-28T07:59:26;99955.81;;;-0.10;100.00
21240;BME280;10778;48.962;9.018;2023-01-28T08:01:52;99946.97;;;-0.03;100.00
21240;BME280;10778;48.962;9.018;2023-01-28T08:04:21;99947.88;;;-0.04;100.00
21240;BME280;10778;48.962;9.018;2023-01-28T08:06:47;99949.81;;;-0.10;100.00
21240;BME280;10778;48.962;9.018;2023-01-28T08:09:13;99958.22;;;-0.04;100.00
21240;BME280;10778;48.962;9.018;2023-01-28T08:11:39;99956.44;;;-0.02;100.00
21240;BME280;10778;48.962;9.018;2023-01-28T08:14:05;99953.72;;;0.03;100.00
21240;BME280;10778;48.962;9.018;2023-01-28T08:16:31;99959.78;;;0.02;100.00
21240;BME280;10778;48.962;9.018;2023-01-28T08:18:57;99964.88;;;0.04;100.00
21240;BME280;10778;48.962;9.018;2023-01-28T08:21:23;99960.44;;;0.09;100.00
21240;BME280;10778;48.962;9.018;2023-01-28T08:23:49;99966.53;;;0.06;100.00
21240;BME280;10778;48.962;9.018;2023-01-28T08:26:15;99965.59;;;0.09;100.00
21240;BME280;10778;48.962;9.018;2023-01-28T08:28:41;99966.47;;;0.08;100.00
21240;BME280;10778;48.962;9.018;2023-01-28T08:31:07;99969.94;;;0.07;100.00
21240;BME280;10778;48.962;9.018;2023-01-28T08:33:33;99974.88;;;0.14;100.00
21240;BME280;10778;48.962;9.018;2023-01-28T08:36:02;99968.72;;;0.19;100.00
21240;BME280;10778;48.962;9.018;2023-01-28T08:38:29;99967.13;;;0.14;100.00
21240;BME280;10778;48.962;9.018;2023-01-28T08:40:55;99968.09;;;0.12;100.00
21240;BME280;10778;48.962;9.018;2023-01-28T08:43:22;99968.53;;;0.25;100.00
21240;BME280;10778;48.962;9.018;2023-01-28T08:45:48;99970.97;;;0.30;100.00
21240;BME280;10778;48.962;9.018;2023-01-28T08:48:17;99962.22;;;0.32;100.00
21240;BME280;10778;48.962;9.018;2023-01-28T08:50:43;99969.75;;;0.40;100.00
21240;BME280;10778;48.962;9.018;2023-01-28T08:53:12;99971.50;;;0.39;100.00
21240;BME280;10778;48.962;9.018;2023-01-28T08:55:38;99971.88;;;0.28;100.00
21240;BME280;10778;48.962;9.018;2023-01-28T08:58:06;99975.09;;;0.35;100.00
21240;BME280;10778;48.962;9.018;2023-01-28T09:00:33;99979.66;;;0.27;100.00
21240;BME280;10778;48.962;9.018;2023-01-28T09:03:00;99976.78;;;0.36;100.00
21240;BME280;10778;48.962;9.018;2023-01-28T09:05:26;99977.72;;;0.34;100.00
21240;BME280;10778;48.962;9.018;2023-01-28T09:07:52;99984.44;;;0.39;100.00
21240;BME280;10778;48.962;9.018;2023-01-28T09:10:19;99981.78;;;0.41;100.00
21240;BME280;10778;48.962;9.018;2023-01-28T09:12:47;99980.28;;;0.35;100.00
21240;BME280;10778;48.962;9.018;2023-01-28T09:15:13;99985.38;;;0.37;100.00
21240;BME280;10778;48.962;9.018;2023-01-28T09:17:39;99991.25;;;0.42;100.00
21240;BME280;10778;48.962;9.018;2023-01-28T09:20:06;99991.31;;;0.40;100.00
21240;BME280;10778;48.962;9.018;2023-01-28T09:22:33;100001.66;;;0.40;100.00
21240;BME280;10778;48.962;9.018;2023-01-28T09:24:59;99996.16;;;0.50;100.00
21240;BME280;10778;48.962;9.018;2023-01-28T09:27:25;100002.84;;;0.57;100.00
21240;BME280;10778;48.962;9.018;2023-01-28T09:29:51;99998.59;;;0.54;100.00
21240;BME280;10778;48.962;9.018;2023-01-28T09:32:17;99999.47;;;0.55;100.00
21240;BME280;10778;48.962;9.018;2023-01-28T09:34:42;100003.53;;;0.62;100.00
21240;BME280;10778;48.962;9.018;2023-01-28T09:37:10;100013.59;;;0.72;100.00
21240;BME280;10778;48.962;9.018;2023-01-28T09:39:37;100011.03;;;1.67;100.00
21240;BME280;10778;48.962;9.018;2023-01-28T09:42:07;100008.50;;;2.10;100.00
21240;BME280;10778;48.962;9.018;2023-01-28T09:47:38;100016.56;;;3.09;98.45
21240;BME280;10778;48.962;9.018;2023-01-28T09:50:35;100015.69;;;3.08;92.16
21240;BME280;10778;48.962;9.018;2023-01-28T09:53:22;100015.59;;;2.70;93.63
21240;BME280;10778;48.962;9.018;2023-01-28T09:56:25;100020.34;;;2.17;94.48
21240;BME280;10778;48.962;9.018;2023-01-28T09:58:57;100024.75;;;1.70;98.23
21240;BME280;10778;48.962;9.018;2023-01-28T10:01:37;100027.78;;;1.82;100.00
21240;BME280;10778;48.962;9.018;2023-01-28T10:04:49;100025.56;;;1.71;100.00
21240;BME280;10778;48.962;9.018;2023-01-28T10:08:06;100036.44;;;1.59;98.80
21240;BME280;10778;48.962;9.018;2023-01-28T10:13:23;100020.09;;;1.56;100.00
21240;BME280;10778;48.962;9.018;2023-01-28T10:15:58;100018.28;;;1.59;100.00
21240;BME280;10778;48.962;9.018;2023-01-28T10:18:39;100017.13;;;1.66;100.00
21240;BME280;10778;48.962;9.018;2023-01-28T10:21:35;100017.13;;;1.66;100.00
21240;BME280;10778;48.962;9.018;2023-01-28T10:24:23;100013.41;;;1.49;100.00
21240;BME280;10778;48.962;9.018;2023-01-28T10:26:50;100013.50;;;1.48;100.00
21240;BME280;10778;48.962;9.018;2023-01-28T10:29:20;100005.78;;;1.68;100.00
21240;BME280;10778;48.962;9.018;2023-01-28T10:31:58;100005.13;;;1.63;100.00
21240;BME280;10778;48.962;9.018;2023-01-28T10:34:27;100001.69;;;1.63;100.00
21240;BME280;10778;48.962;9.018;2023-01-28T10:36:53;100007.59;;;1.66;100.00
21240;BME280;10778;48.962;9.018;2023-01-28T10:39:23;100003.13;;;1.70;100.00
21240;BME280;10778;48.962;9.018;2023-01-28T10:41:50;99997.47;;;1.82;100.00
21240;BME280;10778;48.962;9.018;2023-01-28T10:44:23;100003.69;;;1.78;97.76
21240;BME280;10778;48.962;9.018;2023-01-28T10:46:52;100013.41;;;1.73;98.40
21240;BME280;10778;48.962;9.018;2023-01-28T10:49:26;100009.47;;;1.63;99.18
21240;BME280;10778;48.962;9.018;2023-01-28T10:51:52;100009.34;;;1.66;99.24
21240;BME280;10778;48.962;9.018;2023-01-28T10:54:23;100005.25;;;1.82;97.82
21240;BME280;10778;48.962;9.018;2023-01-28T10:56:52;100009.59;;;1.60;97.97
21240;BME280;10778;48.962;9.018;2023-01-28T11:01:53;100010.50;;;1.59;96.96
21240;BME280;10778;48.962;9.018;2023-01-28T11:04:34;100012.81;;;1.42;98.21
21240;BME280;10778;48.962;9.018;2023-01-28T11:07:04;100014.09;;;1.31;97.77
21240;BME280;10778;48.962;9.018;2023-01-28T11:09:32;100012.94;;;1.16;100.00
21240;BME280;10778;48.962;9.018;2023-01-28T11:12:20;100025.09;;;1.13;100.00
21240;BME280;10778;48.962;9.018;2023-01-28T11:17:18;100021.41;;;0.95;100.00
21240;BME280;10778;48.962;9.018;2023-01-28T11:19:45;100021.72;;;0.86;100.00
21240;BME280;10778;48.962;9.018;2023-01-28T11:22:26;100018.56;;;1.02;100.00
21240;BME280;10778;48.962;9.018;2023-01-28T11:24:58;100020.66;;;0.92;100.00
21240;BME280;10778;48.962;9.018;2023-01-28T11:27:28;100025.41;;;0.79;100.00
21240;BME280;10778;48.962;9.018;2023-01-28T11:29:57;100018.97;;;0.91;100.00
21240;BME280;10778;48.962;9.018;2023-01-28T11:32:27;100024.22;;;0.89;100.00
21240;BME280;10778;48.962;9.018;2023-01-28T11:34:54;100025.75;;;0.95;100.00
21240;BME280;10778;48.962;9.018;2023-01-28T11:37:27;100022.19;;;0.72;100.00
21240;BME280;10778;48.962;9.018;2023-01-28T11:40:21;100032.16;;;0.57;100.00
21240;BME280;10778;48.962;9.018;2023-01-28T11:42:47;100027.53;;;0.67;100.00
21240;BME280;10778;48.962;9.018;2023-01-28T11:45:16;100026.69;;;0.67;100.00
21240;BME280;10778;48.962;9.018;2023-01-28T11:48:07;100032.09;;;0.61;100.00
21240;BME280;10778;48.962;9.018;2023-01-28T11:50:44;100025.78;;;0.68;100.00
21240;BME280;10778;48.962;9.018;2023-01-28T11:53:24;100029.16;;;0.70;100.00
21240;BME280;10778;48.962;9.018;2023-01-28T11:58:40;100034.09;;;0.51;100.00
21240;BME280;10778;48.962;9.018;2023-01-28T12:04:06;100031.19;;;0.62;100.00
21240;BME280;10778;48.962;9.018;2023-01-28T12:06:46;100030.38;;;0.60;100.00
21240;BME280;10778;48.962;9.018;2023-01-28T12:09:43;100029.28;;;0.67;100.00
21240;BME280;10778;48.962;9.018;2023-01-28T12:20:29;100037.34;;;0.57;100.00
21240;BME280;10778;48.962;9.018;2023-01-28T12:28:56;100030.06;;;0.69;100.00
21240;BME280;10778;48.962;9.018;2023-01-28T12:31:42;100036.41;;;0.60;100.00
21240;BME280;10778;48.962;9.018;2023-01-28T12:37:13;100030.16;;;0.40;100.00
21240;BME280;10778;48.962;9.018;2023-01-28T12:42:38;100022.13;;;0.48;100.00
21240;BME280;10778;48.962;9.018;2023-01-28T12:47:56;100019.53;;;0.48;100.00
21240;BME280;10778;48.962;9.018;2023-01-28T12:50:30;100009.94;;;0.52;100.00
21240;BME280;10778;48.962;9.018;2023-01-28T12:53:18;100010.97;;;0.46;100.00
21240;BME280;10778;48.962;9.018;2023-01-28T12:55:52;100013.50;;;0.48;100.00
21240;BME280;10778;48.962;9.018;2023-01-28T12:58:27;100006.69;;;0.45;100.00
21240;BME280;10778;48.962;9.018;2023-01-28T13:01:02;100001.16;;;0.56;100.00
21240;BME280;10778;48.962;9.018;2023-01-28T13:03:44;100001.34;;;0.50;100.00
21240;BME280;10778;48.962;9.018;2023-01-28T13:06:36;99996.81;;;0.56;100.00
21240;BME280;10778;48.962;9.018;2023-01-28T13:09:15;99998.19;;;0.67;100.00
21240;BME280;10778;48.962;9.018;2023-01-28T13:11:42;100006.72;;;0.70;100.00
21240;BME280;10778;48.962;9.018;2023-01-28T13:14:11;100010.81;;;0.76;100.00
21240;BME280;10778;48.962;9.018;2023-01-28T13:16:38;100006.50;;;0.77;100.00
21240;BME280;10778;48.962;9.018;2023-01-28T13:19:21;100008.03;;;0.82;100.00
21240;BME280;10778;48.962;9.018;2023-01-28T13:21:48;100010.56;;;0.84;100.00
21240;BME280;10778;48.962;9.018;2023-01-28T13:24:20;100011.72;;;0.75;100.00
21240;BME280;10778;48.962;9.018;2023-01-28T13:26:49;100008.47;;;0.68;100.00
21240;BME280;10778;48.962;9.018;2023-01-28T13:31:58;100015.97;;;0.78;100.00
21240;BME280;10778;48.962;9.018;2023-01-28T13:34:36;100012.81;;;0.69;100.00
21240;BME280;10778;48.962;9.018;2023-01-28T13:37:26;100015.16;;;0.76;100.00
21240;BME280;10778;48.962;9.018;2023-01-28T13:40:00;100010.94;;;0.73;100.00
21240;BME280;10778;48.962;9.018;2023-01-28T13:42:29;100021.94;;;0.80;100.00
21240;BME280;10778;48.962;9.018;2023-01-28T13:47:46;100015.44;;;0.93;100.00
21240;BME280;10778;48.962;9.018;2023-01-28T13:50:22;100020.38;;;0.74;100.00
21240;BME280;10778;48.962;9.018;2023-01-28T13:52:54;100020.91;;;0.84;100.00
21240;BME280;10778;48.962;9.018;2023-01-28T13:55:35;100016.72;;;0.81;100.00
21240;BME280;10778;48.962;9.018;2023-01-28T14:00:41;100039.81;;;0.88;100.00
21240;BME280;10778;48.962;9.018;2023-01-28T14:03:27;100030.34;;;0.87;100.00
21240;BME280;10778;48.962;9.018;2023-01-28T14:12:00;100040.91;;;0.80;99.47
21240;BME280;10778;48.962;9.018;2023-01-28T14:19:47;100041.75;;;0.81;98.16
21240;BME280;10778;48.962;9.018;2023-01-28T14:22:18;100047.84;;;0.80;97.85
21240;BME280;10778;48.962;9.018;2023-01-28T14:24:46;100051.28;;;0.80;98.13
21240;BME280;10778;48.962;9.018;2023-01-28T14:27:26;100053.38;;;0.69;96.99
21240;BME280;10778;48.962;9.018;2023-01-28T14:30:03;100066.13;;;0.75;97.64
21240;BME280;10778;48.962;9.018;2023-01-28T14:32:33;100067.75;;;0.78;96.18